createdAt,value
2017-09-17T00:01:57.037Z,97.60
2017-09-17T00:04:25.087Z,97.80
2017-09-17T00:06:53.160Z,97.90
2017-09-17T00:09:21.207Z,97.60
2017-09-17T00:11:50.094Z,98.00
2017-09-17T00:14:18.958Z,98.40
2017-09-17T00:16:47.061Z,98.40
2017-09-17T00:19:15.106Z,98.70
2017-09-17T00:21:43.951Z,98.80
2017-09-17T00:24:12.012Z,98.70
2017-09-17T00:26:40.079Z,98.70
2017-09-17T00:29:08.919Z,98.70
2017-09-17T00:31:36.979Z,98.70
2017-09-17T00:34:05.060Z,98.70
2017-09-17T00:36:33.135Z,99.00
2017-09-17T00:39:01.190Z,98.90
2017-09-17T00:41:29.263Z,98.80
2017-09-17T00:43:57.335Z,98.60
2017-09-17T00:46:25.406Z,98.90
2017-09-17T00:48:53.479Z,98.90
2017-09-17T00:51:21.548Z,98.70
2017-09-17T00:53:49.600Z,98.50
2017-09-17T00:56:18.785Z,98.80
2017-09-17T00:58:46.812Z,98.70
2017-09-17T01:01:14.952Z,98.60
2017-09-17T01:03:43.809Z,98.90
2017-09-17T01:06:11.856Z,98.90
2017-09-17T01:08:39.922Z,98.90
2017-09-17T01:11:07.987Z,98.70
2017-09-17T01:13:36.059Z,98.60
2017-09-17T01:16:04.127Z,98.60
2017-09-17T01:18:32.182Z,98.80
2017-09-17T01:21:00.271Z,98.90
2017-09-17T01:23:28.341Z,98.60
2017-09-17T01:25:56.399Z,98.40
2017-09-17T01:28:24.471Z,98.40
2017-09-17T01:30:52.522Z,98.40
2017-09-17T01:33:21.328Z,98.30
2017-09-17T01:35:49.360Z,98.10
2017-09-17T01:38:17.438Z,97.90
2017-09-17T01:40:45.493Z,98.30
2017-09-17T01:43:13.561Z,98.40
2017-09-17T01:45:41.631Z,98.20
2017-09-17T01:48:09.686Z,98.10
2017-09-17T01:50:37.770Z,97.70
2017-09-17T01:53:05.844Z,97.10
2017-09-17T01:55:34.917Z,97.00
2017-09-17T01:58:02.983Z,96.80
2017-09-17T02:00:31.078Z,96.70
2017-09-17T02:02:59.146Z,96.90
2017-09-17T02:05:27.202Z,96.90
2017-09-17T02:07:56.035Z,96.90
2017-09-17T02:10:24.088Z,96.70
2017-09-17T02:12:52.131Z,96.90
2017-09-17T02:15:20.205Z,96.90
2017-09-17T02:17:48.294Z,97.20
2017-09-17T02:20:16.350Z,97.70
2017-09-17T02:22:44.413Z,97.40
2017-09-17T02:25:12.487Z,96.90
2017-09-17T02:27:40.536Z,97.10
2017-09-17T02:30:09.371Z,96.80
2017-09-17T02:32:37.450Z,96.70
2017-09-17T02:35:05.510Z,96.50
2017-09-17T02:37:33.599Z,96.60
2017-09-17T02:40:01.646Z,96.70
2017-09-17T02:42:30.232Z,96.40
2017-09-17T02:44:59.026Z,96.50
2017-09-17T02:47:27.110Z,96.50
2017-09-17T02:49:55.178Z,96.60
2017-09-17T02:52:23.226Z,96.50
2017-09-17T02:54:51.302Z,96.80
2017-09-17T02:57:19.595Z,97.10
2017-09-17T02:59:48.386Z,97.10
2017-09-17T03:02:16.457Z,97.10
2017-09-17T03:04:44.522Z,97.30
2017-09-17T03:07:12.595Z,97.40
2017-09-17T03:09:40.677Z,97.60
2017-09-17T03:12:08.719Z,97.70
2017-09-17T03:14:36.799Z,97.50
2017-09-17T03:17:04.879Z,97.30
2017-09-17T03:19:32.937Z,97.50
2017-09-17T03:22:00.997Z,97.40
2017-09-17T03:24:29.061Z,97.40
2017-09-17T03:26:57.232Z,97.20
2017-09-17T03:32:01.989Z,97.30
2017-09-17T03:34:30.782Z,97.30
2017-09-17T03:36:59.242Z,97.30
2017-09-17T03:39:28.031Z,97.50
2017-09-17T03:41:56.125Z,97.50
2017-09-17T03:44:24.176Z,97.50
2017-09-17T03:46:52.241Z,97.60
2017-09-17T03:49:21.054Z,97.70
2017-09-17T03:51:49.119Z,97.70
2017-09-17T03:54:17.196Z,98.00
2017-09-17T03:56:45.253Z,97.70
2017-09-17T03:59:13.330Z,97.70
2017-09-17T04:01:41.396Z,97.90
2017-09-17T04:04:09.717Z,98.00
2017-09-17T04:06:37.751Z,98.20
2017-09-17T04:09:05.859Z,98.10
2017-09-17T04:11:33.931Z,98.20
2017-09-17T04:14:02.004Z,98.30
2017-09-17T04:16:30.072Z,98.00
2017-09-17T04:18:58.119Z,97.70
2017-09-17T04:21:26.182Z,97.60
2017-09-17T04:23:54.258Z,97.60
2017-09-17T04:26:22.324Z,97.40
2017-09-17T04:28:50.404Z,97.30
2017-09-17T04:31:18.459Z,97.50
2017-09-17T04:33:46.531Z,97.70
2017-09-17T04:36:14.640Z,97.90
2017-09-17T04:38:42.724Z,98.20
2017-09-17T04:41:10.778Z,98.30
2017-09-17T04:43:38.828Z,98.50
2017-09-17T04:46:06.894Z,97.80
2017-09-17T04:48:34.958Z,97.50
2017-09-17T04:51:03.779Z,97.30
2017-09-17T04:53:31.856Z,97.20
2017-09-17T04:55:59.902Z,97.30
2017-09-17T04:58:27.966Z,97.10
2017-09-17T05:00:56.035Z,97.00
2017-09-17T05:03:24.110Z,97.00
2017-09-17T05:05:52.159Z,97.30
2017-09-17T05:08:21.024Z,97.60
2017-09-17T05:10:49.099Z,97.60
2017-09-17T05:13:17.238Z,98.00
2017-09-17T05:15:45.287Z,98.10
2017-09-17T05:18:13.355Z,98.10
2017-09-17T05:20:41.407Z,98.00
2017-09-17T05:23:10.239Z,97.90
2017-09-17T05:25:38.292Z,97.90
2017-09-17T05:28:06.402Z,97.90
2017-09-17T05:30:34.476Z,97.90
2017-09-17T05:33:03.471Z,98.20
2017-09-17T05:35:31.550Z,98.30
2017-09-17T05:37:59.611Z,98.40
2017-09-17T05:40:27.680Z,98.70
2017-09-17T05:42:55.750Z,99.00
2017-09-17T05:45:23.828Z,99.10
2017-09-17T05:47:51.893Z,99.40
2017-09-17T05:50:19.950Z,99.20
2017-09-17T05:52:48.811Z,98.70
2017-09-17T05:55:16.895Z,98.70
2017-09-17T05:57:44.940Z,98.40
2017-09-17T06:00:13.015Z,98.30
2017-09-17T06:02:41.072Z,98.00
2017-09-17T06:05:09.151Z,97.80
2017-09-17T06:07:37.202Z,97.60
2017-09-17T06:10:05.276Z,97.70
2017-09-17T06:12:33.355Z,97.70
2017-09-17T06:15:01.434Z,97.40
2017-09-17T06:17:29.509Z,97.70
2017-09-17T06:19:57.578Z,98.00
2017-09-17T06:22:25.640Z,98.10
2017-09-17T06:24:53.719Z,98.00
2017-09-17T06:27:22.964Z,97.90
2017-09-17T06:29:51.988Z,97.80
2017-09-17T06:32:20.039Z,97.40
2017-09-17T06:34:48.109Z,97.80
2017-09-17T06:37:16.190Z,97.90
2017-09-17T06:39:45.027Z,98.00
2017-09-17T06:42:13.108Z,97.90
2017-09-17T06:44:41.186Z,97.60
2017-09-17T06:47:09.248Z,97.80
2017-09-17T06:49:37.339Z,97.70
2017-09-17T06:52:05.399Z,98.00
2017-09-17T06:54:33.470Z,98.20
2017-09-17T06:57:01.520Z,98.50
2017-09-17T06:59:29.616Z,99.00
2017-09-17T07:01:57.659Z,99.10
2017-09-17T07:04:25.708Z,99.10
2017-09-17T07:06:54.543Z,98.60
2017-09-17T07:09:22.612Z,98.60
2017-09-17T07:11:50.663Z,98.00
2017-09-17T07:14:18.757Z,98.00
2017-09-17T07:16:46.827Z,97.90
2017-09-17T07:19:14.895Z,97.40
2017-09-17T07:21:42.969Z,97.10
2017-09-17T07:24:11.010Z,96.40
2017-09-17T07:26:39.087Z,96.80
2017-09-17T07:29:07.188Z,96.90
2017-09-17T07:31:35.285Z,96.70
2017-09-17T07:34:05.300Z,96.50
2017-09-17T07:36:34.184Z,96.20
2017-09-17T07:39:03.053Z,96.00
2017-09-17T07:41:31.117Z,95.90
2017-09-17T07:43:59.197Z,95.70
2017-09-17T07:46:27.571Z,95.60
2017-09-17T07:48:55.643Z,95.60
2017-09-17T07:51:23.783Z,96.10
2017-09-17T07:53:51.853Z,95.70
2017-09-17T07:56:20.819Z,94.90
2017-09-17T07:58:48.921Z,94.80
2017-09-17T08:01:17.522Z,94.80
2017-09-17T08:03:45.677Z,94.80
2017-09-17T08:06:14.657Z,94.80
2017-09-17T08:08:42.736Z,94.70
2017-09-17T08:11:10.780Z,94.60
2017-09-17T08:13:38.887Z,94.00
2017-09-17T08:16:06.934Z,93.50
2017-09-17T08:18:35.716Z,93.80
2017-09-17T08:21:04.555Z,93.10
2017-09-17T08:23:32.634Z,93.00
2017-09-17T08:26:00.708Z,93.20
2017-09-17T08:28:28.811Z,92.50
2017-09-17T08:30:56.894Z,93.10
2017-09-17T08:33:25.003Z,93.30
2017-09-17T08:35:53.116Z,93.00
2017-09-17T08:38:21.186Z,92.40
2017-09-17T08:40:49.308Z,92.00
2017-09-17T08:43:17.399Z,91.60
2017-09-17T08:45:45.486Z,91.20
2017-09-17T08:48:13.618Z,91.00
2017-09-17T08:50:42.467Z,91.60
2017-09-17T08:53:11.310Z,90.30
2017-09-17T08:55:39.745Z,89.70
2017-09-17T08:58:08.616Z,89.20
2017-09-17T09:00:36.726Z,89.20
2017-09-17T09:03:05.544Z,88.90
2017-09-17T09:05:33.647Z,88.70
2017-09-17T09:08:01.760Z,88.50
2017-09-17T09:10:30.607Z,87.80
2017-09-17T09:12:58.688Z,87.70
2017-09-17T09:15:27.538Z,87.40
2017-09-17T09:17:55.606Z,87.30
2017-09-17T09:20:23.741Z,88.90
2017-09-17T09:22:52.560Z,87.80
2017-09-17T09:25:20.659Z,87.60
2017-09-17T09:27:49.303Z,87.30
2017-09-17T09:30:17.406Z,86.90
2017-09-17T09:32:45.525Z,88.80
2017-09-17T09:35:13.588Z,86.50
2017-09-17T09:37:42.456Z,83.60
2017-09-17T09:40:10.583Z,82.90
2017-09-17T09:42:39.548Z,78.70
2017-09-17T09:45:08.411Z,63.90
2017-09-17T09:47:36.471Z,63.70
2017-09-17T09:50:04.543Z,59.10
2017-09-17T09:52:32.630Z,57.60
2017-09-17T09:55:00.742Z,53.80
2017-09-17T09:57:30.361Z,51.80
2017-09-17T09:59:59.449Z,51.20
2017-09-17T10:02:27.519Z,52.40
2017-09-17T10:04:55.608Z,53.50
2017-09-17T10:07:24.988Z,54.00
2017-09-17T10:09:53.797Z,52.20
2017-09-17T10:12:22.842Z,52.10
2017-09-17T10:14:51.716Z,47.80
2017-09-17T10:17:19.858Z,47.70
2017-09-17T10:19:47.993Z,46.60
2017-09-17T10:22:16.115Z,44.30
2017-09-17T10:24:44.246Z,43.30
2017-09-17T10:27:12.394Z,40.40
2017-09-17T10:29:40.487Z,38.20
2017-09-17T10:32:09.992Z,35.30
2017-09-17T10:34:38.088Z,35.20
2017-09-17T10:37:06.195Z,33.60
2017-09-17T10:39:34.333Z,33.30
2017-09-17T10:42:03.185Z,30.00
2017-09-17T10:44:31.275Z,30.00
2017-09-17T10:47:00.884Z,29.10
2017-09-17T10:49:28.986Z,29.10
2017-09-17T10:51:57.062Z,27.90
2017-09-17T10:54:25.169Z,28.40
2017-09-17T10:56:53.239Z,30.80
2017-09-17T10:59:21.384Z,33.40
2017-09-17T11:01:49.486Z,36.90
2017-09-17T11:04:17.561Z,40.40
2017-09-17T11:06:45.656Z,43.60
2017-09-17T11:09:13.793Z,46.60
2017-09-17T11:11:41.905Z,49.30
2017-09-17T11:14:09.963Z,52.10
2017-09-17T11:16:38.057Z,53.80
2017-09-17T11:19:06.905Z,58.20
2017-09-17T11:21:34.989Z,58.10
2017-09-17T11:24:04.253Z,59.60
2017-09-17T11:26:32.363Z,59.50
2017-09-17T11:29:00.440Z,62.00
2017-09-17T11:31:28.506Z,63.80
2017-09-17T11:33:56.579Z,66.30
2017-09-17T11:36:24.685Z,66.70
2017-09-17T11:38:53.763Z,68.10
2017-09-17T11:41:21.820Z,68.10
2017-09-17T11:43:50.704Z,57.70
2017-09-17T11:46:18.801Z,57.60
2017-09-17T11:48:46.878Z,58.30
2017-09-17T11:51:15.008Z,59.00
2017-09-17T11:53:43.157Z,60.50
2017-09-17T11:56:11.255Z,64.00
2017-09-17T11:58:40.116Z,67.50
2017-09-17T12:01:08.244Z,67.40
2017-09-17T12:03:37.082Z,69.40
2017-09-17T12:06:05.176Z,68.50
2017-09-17T12:08:33.291Z,69.70
2017-09-17T12:11:02.099Z,69.90
2017-09-17T12:13:30.185Z,69.90
2017-09-17T12:15:58.268Z,71.70
2017-09-17T12:18:26.371Z,72.90
2017-09-17T12:20:55.224Z,71.00
2017-09-17T12:23:23.306Z,70.90
2017-09-17T12:25:52.186Z,72.20
2017-09-17T12:28:20.887Z,72.10
2017-09-17T12:30:48.997Z,73.30
2017-09-17T12:33:17.058Z,72.00
2017-09-17T12:35:45.205Z,72.40
2017-09-17T12:38:13.329Z,73.10
2017-09-17T12:40:41.401Z,73.50
2017-09-17T12:43:10.283Z,75.90
2017-09-17T12:45:38.406Z,75.80
2017-09-17T12:48:06.477Z,78.00
2017-09-17T12:50:34.579Z,79.20
2017-09-17T12:53:02.632Z,79.20
2017-09-17T12:55:30.749Z,79.10
2017-09-17T12:57:58.820Z,78.10
2017-09-17T13:00:27.704Z,80.40
2017-09-17T13:02:56.236Z,79.60
2017-09-17T13:05:24.332Z,78.40
2017-09-17T13:07:52.467Z,82.50
2017-09-17T13:10:20.691Z,84.10
2017-09-17T13:12:48.763Z,83.40
2017-09-17T13:15:16.871Z,81.10
2017-09-17T13:17:45.074Z,79.80
2017-09-17T13:20:13.151Z,79.70
2017-09-17T13:22:41.302Z,79.30
2017-09-17T13:25:10.137Z,78.80
2017-09-17T13:27:38.211Z,78.80
2017-09-17T13:30:06.296Z,76.90
2017-09-17T13:32:34.663Z,77.20
2017-09-17T13:35:02.768Z,77.30
2017-09-17T13:37:31.614Z,76.60
2017-09-17T13:39:59.706Z,76.60
2017-09-17T13:42:27.766Z,77.40
2017-09-17T13:44:55.861Z,70.90
2017-09-17T13:47:23.922Z,71.40
2017-09-17T13:49:52.031Z,71.60
2017-09-17T13:52:20.860Z,68.60
2017-09-17T13:54:48.943Z,68.50
2017-09-17T13:57:17.030Z,68.50
2017-09-17T13:59:55.061Z,68.70
2017-09-17T14:02:39.697Z,67.90
2017-09-17T14:05:13.384Z,67.90
2017-09-17T14:21:07.224Z,66.90
2017-09-17T14:23:35.357Z,67.60
2017-09-17T14:26:03.454Z,68.80
2017-09-17T14:28:31.558Z,67.10
2017-09-17T14:30:59.636Z,67.40
2017-09-17T14:33:27.757Z,66.20
2017-09-17T14:35:56.282Z,66.60
2017-09-17T14:38:24.358Z,66.40
2017-09-17T14:40:52.434Z,65.50
2017-09-17T14:43:20.511Z,67.10
2017-09-17T14:45:48.578Z,67.50
2017-09-17T14:48:16.672Z,69.70
2017-09-17T14:50:44.733Z,68.20
2017-09-17T14:53:13.010Z,68.40
2017-09-17T14:55:41.278Z,69.00
2017-09-17T14:58:09.369Z,65.50
2017-09-17T15:00:37.718Z,65.90
2017-09-17T15:03:06.839Z,68.90
2017-09-17T15:05:34.939Z,69.30
2017-09-17T15:08:03.161Z,66.40
2017-09-17T15:10:31.200Z,64.80
2017-09-17T15:12:59.305Z,65.80
2017-09-17T15:15:28.027Z,66.20
2017-09-17T15:17:56.123Z,64.50
2017-09-17T15:20:24.903Z,67.50
2017-09-17T15:22:52.993Z,64.90
2017-09-17T15:25:21.055Z,64.20
2017-09-17T15:27:49.125Z,67.30
2017-09-17T15:30:17.282Z,67.90
2017-09-17T15:32:45.364Z,68.10
2017-09-17T15:35:14.602Z,69.90
2017-09-17T15:37:42.682Z,69.20
2017-09-17T15:40:10.759Z,69.80
2017-09-17T15:55:38.928Z,71.20
2017-09-17T15:58:07.061Z,77.50
2017-09-17T16:00:35.913Z,80.00
2017-09-17T16:03:04.028Z,80.00
2017-09-17T16:05:32.123Z,80.10
2017-09-17T16:08:00.189Z,80.30
2017-09-17T16:10:28.271Z,80.00
2017-09-17T16:12:56.375Z,80.40
2017-09-17T16:15:25.224Z,80.00
2017-09-17T16:17:53.308Z,80.00
2017-09-17T16:20:21.394Z,80.90
2017-09-17T16:22:50.259Z,81.70
2017-09-17T16:25:19.244Z,81.70
2017-09-17T16:27:47.311Z,83.40
2017-09-17T16:30:15.614Z,84.80
2017-09-17T16:32:44.092Z,84.00
2017-09-17T16:35:12.742Z,84.50
2017-09-17T16:37:40.803Z,84.50
2017-09-17T16:40:08.894Z,84.60
2017-09-17T16:42:36.983Z,85.40
2017-09-17T16:45:05.049Z,86.90
2017-09-17T16:47:33.914Z,87.40
2017-09-17T16:50:01.957Z,87.70
2017-09-17T16:52:30.819Z,87.00
2017-09-17T16:54:58.902Z,86.90
2017-09-17T16:57:27.211Z,86.90
2017-09-17T16:59:55.650Z,88.00
2017-09-17T17:02:23.787Z,90.30
2017-09-17T17:04:51.831Z,91.20
2017-09-17T17:07:20.018Z,91.40
2017-09-17T17:09:48.199Z,91.60
2017-09-17T17:12:17.069Z,92.90
2017-09-17T17:14:46.092Z,92.80
2017-09-17T17:17:14.229Z,93.10
2017-09-17T17:19:43.092Z,97.00
2017-09-17T17:22:12.320Z,98.30
2017-09-17T17:24:41.147Z,98.20
2017-09-17T17:27:09.204Z,98.10
2017-09-17T17:29:37.333Z,99.90
2017-09-17T17:32:05.394Z,99.90
2017-09-17T17:34:34.265Z,99.90
2017-09-17T17:37:02.337Z,99.90
2017-09-17T17:39:30.395Z,99.90
2017-09-17T17:41:58.564Z,99.90
2017-09-17T17:44:26.665Z,99.90
2017-09-17T17:46:54.729Z,99.90
2017-09-17T17:49:22.783Z,99.90
2017-09-17T17:51:50.874Z,99.90
2017-09-17T17:54:18.953Z,99.90
2017-09-17T17:56:47.783Z,99.90
2017-09-17T17:59:15.847Z,99.90
2017-09-17T18:01:43.939Z,99.90
2017-09-17T18:04:12.051Z,99.90
2017-09-17T18:06:40.909Z,99.90
2017-09-17T18:09:08.995Z,99.90
2017-09-17T18:11:37.115Z,99.90
2017-09-17T18:14:05.291Z,99.90
2017-09-17T18:16:34.153Z,99.90
2017-09-17T18:19:02.985Z,99.90
2017-09-17T18:21:31.082Z,99.90
2017-09-17T18:23:59.168Z,99.90
2017-09-17T18:26:27.290Z,99.90
2017-09-17T18:28:56.178Z,99.90
2017-09-17T18:31:25.031Z,99.90
2017-09-17T18:33:53.085Z,99.90
2017-09-17T18:36:21.196Z,99.90
2017-09-17T18:38:50.039Z,99.90
2017-09-17T18:41:18.117Z,99.90
2017-09-17T18:43:46.207Z,99.90
2017-09-17T18:46:14.260Z,99.90
2017-09-17T18:48:42.387Z,99.90
2017-09-17T18:51:15.093Z,99.90
2017-09-17T18:53:43.177Z,99.90
2017-09-17T18:56:11.233Z,99.90
2017-09-17T18:58:39.309Z,99.90
2017-09-17T19:01:07.406Z,99.90
2017-09-17T19:03:36.207Z,99.90
2017-09-17T19:06:05.080Z,99.90
2017-09-17T19:08:33.165Z,99.90
2017-09-17T19:11:02.731Z,99.90
2017-09-17T19:13:30.814Z,99.90
2017-09-17T19:15:58.896Z,99.90
2017-09-17T19:18:26.992Z,99.90
2017-09-17T19:20:55.840Z,99.90
2017-09-17T19:23:23.932Z,99.90
2017-09-17T19:25:52.001Z,99.90
2017-09-17T19:28:20.083Z,99.90
2017-09-17T19:30:48.180Z,99.90
2017-09-17T19:33:17.046Z,99.90
2017-09-17T19:35:45.969Z,99.90
2017-09-17T19:38:15.392Z,99.90
2017-09-17T19:40:43.503Z,99.90
2017-09-17T19:43:11.599Z,99.90
2017-09-17T19:45:39.664Z,99.90
2017-09-17T19:48:07.723Z,99.90
2017-09-17T19:50:35.836Z,99.90
2017-09-17T19:53:03.900Z,99.90
2017-09-17T19:55:32.001Z,99.90
2017-09-17T19:58:00.860Z,99.90
2017-09-17T20:00:28.948Z,99.90
2017-09-17T20:02:57.058Z,99.90
2017-09-17T20:05:25.891Z,99.90
2017-09-17T20:07:53.969Z,99.90
2017-09-17T20:10:22.052Z,99.90
2017-09-17T20:12:50.137Z,99.90
2017-09-17T20:15:19.002Z,99.90
2017-09-17T20:17:47.084Z,99.90
2017-09-17T20:20:15.148Z,99.90
2017-09-17T20:22:43.233Z,99.90
2017-09-17T20:25:11.344Z,99.90
2017-09-17T20:27:39.424Z,99.90
2017-09-17T20:30:07.507Z,99.90
2017-09-17T20:32:35.663Z,99.90
2017-09-17T20:35:03.747Z,99.90
2017-09-17T20:37:32.464Z,99.90
2017-09-17T20:40:00.593Z,99.90
2017-09-17T20:42:28.666Z,99.90
2017-09-17T20:44:56.772Z,99.90
2017-09-17T20:47:24.850Z,99.90
2017-09-17T20:49:52.921Z,99.90
2017-09-17T20:52:20.987Z,99.90
2017-09-17T20:54:49.055Z,99.90
2017-09-17T20:57:17.153Z,99.90
2017-09-17T20:59:45.227Z,99.90
2017-09-17T21:02:13.297Z,99.90
2017-09-17T21:04:41.382Z,99.90
2017-09-17T21:07:09.451Z,99.90
2017-09-17T21:09:38.292Z,99.90
2017-09-17T21:12:06.375Z,99.90
2017-09-17T21:14:34.495Z,99.90
2017-09-17T21:17:02.590Z,99.90
2017-09-17T21:19:31.416Z,99.90
2017-09-17T21:21:59.475Z,99.90
2017-09-17T21:24:27.558Z,99.90
2017-09-17T21:26:55.650Z,99.90
2017-09-17T21:29:23.725Z,99.90
2017-09-17T21:31:51.804Z,99.90
2017-09-17T21:34:19.877Z,99.90
2017-09-17T21:36:48.721Z,99.90
2017-09-17T21:39:16.799Z,99.90
2017-09-17T21:41:44.891Z,99.90
2017-09-17T21:44:12.984Z,99.90
2017-09-17T21:46:41.828Z,99.90
2017-09-17T21:49:09.961Z,99.90
2017-09-17T21:51:38.771Z,99.90
2017-09-17T21:54:06.840Z,99.90
2017-09-17T21:56:34.923Z,99.90
2017-09-17T21:59:02.995Z,99.90
2017-09-17T22:01:31.075Z,99.90
2017-09-17T22:03:59.137Z,99.90
2017-09-17T22:06:27.214Z,99.90
2017-09-17T22:08:55.290Z,99.90
2017-09-17T22:11:23.357Z,99.90
2017-09-17T22:13:52.025Z,99.90
2017-09-17T22:16:20.080Z,99.90
2017-09-17T22:18:48.142Z,99.90
2017-09-17T22:21:16.211Z,99.90
2017-09-17T22:23:44.270Z,99.90
2017-09-17T22:26:13.119Z,99.90
2017-09-17T22:28:41.194Z,99.90
2017-09-17T22:31:09.263Z,99.90
2017-09-17T22:33:37.328Z,99.90
2017-09-17T22:36:05.402Z,99.90
2017-09-17T22:38:33.475Z,99.90
2017-09-17T22:41:01.532Z,99.90
2017-09-17T22:43:29.603Z,99.90
2017-09-17T22:45:57.684Z,99.90
2017-09-17T22:48:25.754Z,99.90
2017-09-17T22:50:54.575Z,99.90
2017-09-17T22:53:22.659Z,99.90
2017-09-17T22:55:50.712Z,99.90
2017-09-17T22:58:18.776Z,99.90
2017-09-17T23:00:46.863Z,99.90
2017-09-17T23:03:14.920Z,99.90
2017-09-17T23:05:42.999Z,99.90
2017-09-17T23:08:11.055Z,99.90
2017-09-17T23:10:39.123Z,99.90
2017-09-17T23:13:07.952Z,99.90
2017-09-17T23:15:36.010Z,99.90
2017-09-17T23:18:04.071Z,99.90
2017-09-17T23:20:32.129Z,99.90
2017-09-17T23:23:00.206Z,99.90
2017-09-17T23:25:28.244Z,99.90
2017-09-17T23:27:57.100Z,99.90
2017-09-17T23:30:25.157Z,99.90
2017-09-17T23:32:53.240Z,99.90
2017-09-17T23:35:21.291Z,99.90
2017-09-17T23:37:49.443Z,99.90
2017-09-17T23:40:17.515Z,99.90
2017-09-17T23:42:45.568Z,99.90
2017-09-17T23:45:14.406Z,99.90
2017-09-17T23:47:42.460Z,99.90
2017-09-17T23:50:10.544Z,99.90
2017-09-17T23:52:38.600Z,99.90
2017-09-17T23:55:06.648Z,99.90
2017-09-17T23:57:34.744Z,99.90
